Time;durP1;ratioP1;P1;durP2;ratioP2;P2;SDS_P1;SDS_P2;PMS_P1;PMS_P2;Temp;Humidity;BMP_temperature;BMP_pressure;BME280_temperature;BME280_humidity;BME280_pressure;Samples;Min_cycle;Max_cycle;Signal;HPM_P1;HPM_P2
2023/12/24 00:00:21;;;;;;;;;;;;;;;;;;2182952;67;2052;-18
2023/12/24 00:02:52;;;;;;;;;;;;;;;;;;2180664;59;2428;-20
2023/12/24 00:05:22;;;;;;;;;;;;;;;;;;2180455;67;2563;-18
2023/12/24 00:07:52;;;;;;;;;;;;;;;;;;2180924;59;2435;-20
2023/12/24 00:10:23;;;;;;;;;;;;;;;;;;2181230;59;2406;-20
2023/12/24 00:12:53;;;;;;;;;;;;;;;;;;2180805;59;1914;-20
2023/12/24 00:15:24;;;;;;;;;;;;;;;;;;2182160;59;1931;-20
2023/12/24 00:17:54;;;;;;;;;;;;;;;;;;2196298;67;2260;-20
2023/12/24 00:20:25;;;;;;;;;;;;;;;;;;2182563;60;2050;-18
2023/12/24 00:23:08;;;;;;;;;;;;;;;;;;2181112;59;1972;-20
2023/12/24 00:25:38;;;;;;;;;;;;;;;;;;2181842;67;2128;-20
2023/12/24 00:28:09;;;;;;;;;;;;;;;;;;2181120;60;2493;-18
2023/12/24 00:30:39;;;;;;;;;;;;;;;;;;2182336;59;2548;-20
2023/12/24 00:33:10;;;;;;;;;;;;;;;;;;2181691;59;2112;-18
2023/12/24 00:35:40;;;;;;;;;;;;;;;;;;2182679;67;2641;-20
2023/12/24 00:38:10;;;;;;;;;;;;;;;;;;2197163;67;2229;-18
2023/12/24 00:40:44;;;;;;;;;;;;;;;;;;2181841;67;1911;-20
2023/12/24 00:43:14;;;;;;;;;;;;;;;;;;2180731;60;2565;-20
2023/12/24 00:45:45;;;;;;;;;;;;;;;;;;2181576;67;1965;-20
2023/12/24 00:48:15;;;;;;;;;;;;;;;;;;2180327;67;2285;-18
2023/12/24 00:50:45;;;;;;;;;;;;;;;;;;2182676;67;2085;-20
2023/12/24 00:53:16;;;;;;;;;;;;;;;;;;2196622;59;2476;-18
2023/12/24 00:55:46;;;;;;;;;;;;;;;;;;2185397;59;1673;-18
2023/12/24 00:58:17;;;;;;;;;;;;;;;;;;2181783;59;2505;-20
2023/12/24 01:00:48;;;;;;;;;;;;;;;;;;2182571;59;1741;-20
2023/12/24 01:03:19;;;;;;;;;;;;;;;;;;2180376;60;2495;-18
2023/12/24 01:05:50;;;;;;;;;;;;;;;;;;2181394;60;2520;-20
2023/12/24 01:08:22;;;;;;;;;;;;;;;;;;2181080;59;1932;-20
2023/12/24 01:10:53;;;;;;;;;;;;;;;;;;2180646;59;2035;-18
2023/12/24 01:13:24;;;;;;;;;;;;;;;;;;2177481;59;2093;-20
2023/12/24 01:15:54;;;;;;;;;;;;;;;;;;2182915;59;1801;-20
2023/12/24 01:18:25;;;;;;;;;;;;;;;;;;2195802;59;1942;-20
2023/12/24 01:20:56;;;;;;;;;;;;;;;;;;2181579;67;1992;-20
2023/12/24 01:23:26;;;;;;;;;;;;;;;;;;2181919;60;2040;-18
2023/12/24 01:25:57;;;;;;;;;;;;;;;;;;2182621;67;1949;-20
2023/12/24 01:28:27;;;;;;;;;;;;;;;;;;2184619;59;2384;-20
2023/12/24 01:30:57;;;;;;;;;;;;;;;;;;2182660;59;2512;-20
2023/12/24 01:33:28;;;;;;;;;;;;;;;;;;2181147;59;2201;-20
2023/12/24 01:35:59;;;;;;;;;;;;;;;;;;2181230;59;2293;-20
2023/12/24 01:38:29;;;;;;;;;;;;;;;;;;2182003;59;1936;-18
2023/12/24 01:40:59;;;;;;;;;;;;;;;;;;2196556;67;2472;-20
2023/12/24 01:43:30;;;;;;;;;;;;;;;;;;2180791;60;2319;-18
2023/12/24 01:46:02;;;;;;;;;;;;;;;;;;2180997;59;1999;-20
2023/12/24 01:48:32;;;;;;;;;;;;;;;;;;2181065;59;2410;-20
2023/12/24 01:51:03;;;;;;;;;;;;;;;;;;2181357;59;2223;-19
2023/12/24 01:53:34;;;;;;;;;;;;;;;;;;2196539;59;1975;-19
2023/12/24 01:56:05;;;;;;;;;;;;;;;;;;2181383;59;2208;-20
2023/12/24 01:58:36;;;;;;;;;;;;;;;;;;2182683;67;2012;-18
2023/12/24 02:01:06;;;;;;;;;;;;;;;;;;2181836;60;1820;-20
2023/12/24 02:03:37;;;;;;;;;;;;;;;;;;2181747;59;2021;-20
2023/12/24 02:06:08;;;;;;;;;;;;;;;;;;2184798;67;1953;-20
2023/12/24 02:08:39;;;;;;;;;;;;;;;;;;2182278;59;1919;-20
2023/12/24 02:11:10;;;;;;;;;;;;;;;;;;2180993;59;1900;-20
2023/12/24 02:13:40;;;;;;;;;;;;;;;;;;2181988;59;2002;-18
2023/12/24 02:16:11;;;;;;;;;;;;;;;;;;2180995;60;1850;-20
2023/12/24 02:18:42;;;;;;;;;;;;;;;;;;2182418;59;1837;-20
2023/12/24 02:21:12;;;;;;;;;;;;;;;;;;2184598;67;1962;-18
2023/12/24 02:23:42;;;;;;;;;;;;;;;;;;2183622;67;1892;-18
2023/12/24 02:26:22;;;;;;;;;;;;;;;;;;2181659;59;2369;-18
2023/12/24 02:29:01;;;;;;;;;;;;;;;;;;2183677;67;3067;-18
2023/12/24 02:31:34;;;;;;;;;;;;;;;;;;2181576;59;2271;-20
2023/12/24 02:34:06;;;;;;;;;;;;;;;;;;2180097;59;2104;-20
2023/12/24 02:36:37;;;;;;;;;;;;;;;;;;2196562;59;2042;-18
2023/12/24 02:39:07;;;;;;;;;;;;;;;;;;2181318;60;2583;-20
2023/12/24 02:41:38;;;;;;;;;;;;;;;;;;2182537;67;1813;-18
2023/12/24 02:44:09;;;;;;;;;;;;;;;;;;2180201;59;1787;-20
2023/12/24 02:46:40;;;;;;;;;;;;;;;;;;2178398;60;2201;-20
2023/12/24 02:49:11;;;;;;;;;;;;;;;;;;2182244;67;2318;-18
2023/12/24 02:51:41;;;;;;;;;;;;;;;;;;2181834;67;1998;-18
2023/12/24 02:54:11;;;;;;;;;;;;;;;;;;2182419;67;2785;-19
2023/12/24 02:56:42;;;;;;;;;;;;;;;;;;2180972;67;2115;-20
2023/12/24 02:59:12;;;;;;;;;;;;;;;;;;2181008;67;2253;-18
2023/12/24 03:01:43;;;;;;;;;;;;;;;;;;2182016;59;2077;-20
2023/12/24 03:04:13;;;;;;;;;;;;;;;;;;2181471;59;3408;-20
2023/12/24 03:06:43;;;;;;;;;;;;;;;;;;2181472;60;2333;-18
2023/12/24 03:09:14;;;;;;;;;;;;;;;;;;2180404;59;2132;-20
2023/12/24 03:11:44;;;;;;;;;;;;;;;;;;2181943;59;1705;-20
2023/12/24 03:14:15;;;;;;;;;;;;;;;;;;2179916;59;2034;-20
2023/12/24 03:16:45;;;;;;;;;;;;;;;;;;2181017;59;1977;-17
2023/12/24 03:19:15;;;;;;;;;;;;;;;;;;2180840;67;2033;-19
2023/12/24 03:21:46;;;;;;;;;;;;;;;;;;2180928;60;2243;-20
2023/12/24 03:24:16;;;;;;;;;;;;;;;;;;2180489;59;1764;-19
2023/12/24 03:26:47;;;;;;;;;;;;;;;;;;2180542;59;2121;-20
2023/12/24 03:29:17;;;;;;;;;;;;;;;;;;2196127;67;1756;-20
2023/12/24 03:31:47;;;;;;;;;;;;;;;;;;2179272;59;2661;-19
2023/12/24 03:34:18;;;;;;;;;;;;;;;;;;2181532;67;2682;-18
2023/12/24 03:36:48;;;;;;;;;;;;;;;;;;2181910;67;2110;-20
2023/12/24 03:39:19;;;;;;;;;;;;;;;;;;2181645;67;1658;-20
2023/12/24 03:41:49;;;;;;;;;;;;;;;;;;2182432;60;1903;-19
2023/12/24 03:44:20;;;;;;;;;;;;;;;;;;2180453;67;1883;-19
2023/12/24 03:46:50;;;;;;;;;;;;;;;;;;2195167;59;1935;-19
2023/12/24 03:49:21;;;;;;;;;;;;;;;;;;2179261;59;2346;-18
2023/12/24 03:51:51;;;;;;;;;;;;;;;;;;2185050;59;1789;-20
2023/12/24 03:54:21;;;;;;;;;;;;;;;;;;2180631;59;1844;-20
2023/12/24 03:56:52;;;;;;;;;;;;;;;;;;2182309;67;2081;-18
2023/12/24 03:59:22;;;;;;;;;;;;;;;;;;2181573;60;2572;-18
2023/12/24 04:01:53;;;;;;;;;;;;;;;;;;2182075;67;2711;-18
2023/12/24 04:04:23;;;;;;;;;;;;;;;;;;2180883;67;2396;-20
2023/12/24 04:06:54;;;;;;;;;;;;;;;;;;2182310;67;1953;-18
2023/12/24 04:09:24;;;;;;;;;;;;;;;;;;2182255;59;1729;-20
2023/12/24 04:11:54;;;;;;;;;;;;;;;;;;2182642;59;2007;-18
2023/12/24 04:14:24;;;;;;;;;;;;;;;;;;2182773;59;1827;-20
2023/12/24 04:16:55;;;;;;;;;;;;;;;;;;2196896;59;1797;-20
2023/12/24 04:19:25;;;;;;;;;;;;;;;;;;2192899;67;2086;-20
2023/12/24 04:21:56;;;;;;;;;;;;;;;;;;2181969;59;1637;-19
2023/12/24 04:24:26;;;;;;;;;;;;;;;;;;2181272;67;2146;-18
2023/12/24 04:26:56;;;;;;;;;;;;;;;;;;2182319;59;2973;-19
2023/12/24 04:29:27;;;;;;;;;;;;;;;;;;2178478;60;1788;-20
2023/12/24 04:31:57;;;;;;;;;;;;;;;;;;2184361;59;2248;-20
2023/12/24 04:34:28;;;;;;;;;;;;;;;;;;2181225;59;1782;-17
2023/12/24 04:36:58;;;;;;;;;;;;;;;;;;2181846;67;2016;-19
2023/12/24 04:39:29;;;;;;;;;;;;;;;;;;2180995;59;1891;-20
2023/12/24 04:41:59;;;;;;;;;;;;;;;;;;2181833;67;1979;-18
2023/12/24 04:44:29;;;;;;;;;;;;;;;;;;2195882;59;1985;-18
2023/12/24 04:47:00;;;;;;;;;;;;;;;;;;2182857;67;1997;-18
2023/12/24 04:49:30;;;;;;;;;;;;;;;;;;2181223;67;2379;-20
2023/12/24 04:52:01;;;;;;;;;;;;;;;;;;2197287;67;2954;-18
2023/12/24 04:54:31;;;;;;;;;;;;;;;;;;2180994;59;2139;-20
2023/12/24 04:57:01;;;;;;;;;;;;;;;;;;2181883;60;1761;-18
2023/12/24 04:59:32;;;;;;;;;;;;;;;;;;2182425;60;2033;-20
2023/12/24 05:02:02;;;;;;;;;;;;;;;;;;2177012;60;1842;-20
2023/12/24 05:04:34;;;;;;;;;;;;;;;;;;2176465;60;1689;-18
2023/12/24 05:07:08;;;;;;;;;;;;;;;;;;2182837;67;1942;-17
2023/12/24 05:09:39;;;;;;;;;;;;;;;;;;2182391;59;1938;-18
2023/12/24 05:12:10;;;;;;;;;;;;;;;;;;2184919;59;2777;-18
2023/12/24 05:14:40;;;;;;;;;;;;;;;;;;2181982;59;1831;-18
2023/12/24 05:17:17;;;;;;;;;;;;;;;;;;2182001;59;1809;-18
2023/12/24 05:19:47;;;;;;;;;;;;;;;;;;2181872;67;1801;-20
2023/12/24 05:22:17;;;;;;;;;;;;;;;;;;2181813;59;1674;-20
2023/12/24 05:24:47;;;;;;;;;;;;;;;;;;2182333;67;1989;-19
2023/12/24 05:27:21;;;;;;;;;;;;;;;;;;2182278;67;1647;-20
2023/12/24 05:29:51;;;;;;;;;;;;;;;;;;2182461;67;1655;-18
2023/12/24 05:32:21;;;;;;;;;;;;;;;;;;2181968;59;2234;-20
2023/12/24 05:34:53;;;;;;;;;;;;;;;;;;2182847;67;1856;-20
2023/12/24 05:37:23;;;;;;;;;;;;;;;;;;2179065;67;1334;-20
2023/12/24 05:39:53;;;;;;;;;;;;;;;;;;2182570;67;1360;-18
2023/12/24 05:42:26;;;;;;;;;;;;;;;;;;2182954;60;1586;-18
2023/12/24 05:44:56;;;;;;;;;;;;;;;;;;2182912;60;2142;-17
2023/12/24 05:47:27;;;;;;;;;;;;;;;;;;2182632;67;1661;-18
2023/12/24 05:49:57;;;;;;;;;;;;;;;;;;2183188;59;1902;-19
2023/12/24 05:52:27;;;;;;;;;;;;;;;;;;2181844;59;1616;-18
2023/12/24 05:54:58;;;;;;;;;;;;;;;;;;2182759;67;1666;-18
2023/12/24 05:57:34;;;;;;;;;;;;;;;;;;2196624;67;1605;-18
2023/12/24 06:00:05;;;;;;;;;;;;;;;;;;2182542;59;1733;-19
2023/12/24 06:02:37;;;;;;;;;;;;;;;;;;2180257;59;1699;-20
2023/12/24 06:05:07;;;;;;;;;;;;;;;;;;2181548;67;2001;-20
2023/12/24 06:07:37;;;;;;;;;;;;;;;;;;2181264;59;1381;-20
2023/12/24 06:10:08;;;;;;;;;;;;;;;;;;2181705;59;1847;-17
2023/12/24 06:12:41;;;;;;;;;;;;;;;;;;2181171;67;1483;-20
2023/12/24 06:15:14;;;;;;;;;;;;;;;;;;2183861;59;1647;-18
2023/12/24 06:17:48;;;;;;;;;;;;;;;;;;2181785;60;1791;-20
2023/12/24 06:20:18;;;;;;;;;;;;;;;;;;2181202;67;1753;-20
2023/12/24 06:22:49;;;;;;;;;;;;;;;;;;2182724;59;1392;-20
2023/12/24 06:25:20;;;;;;;;;;;;;;;;;;2182963;67;2033;-20
2023/12/24 06:27:50;;;;;;;;;;;;;;;;;;2182289;60;1801;-20
2023/12/24 06:30:24;;;;;;;;;;;;;;;;;;2194426;67;1730;-20
2023/12/24 06:32:54;;;;;;;;;;;;;;;;;;2183764;59;2282;-19
2023/12/24 06:35:25;;;;;;;;;;;;;;;;;;2182129;59;1801;-20
2023/12/24 06:37:55;;;;;;;;;;;;;;;;;;2182497;67;1469;-18
2023/12/24 06:40:26;;;;;;;;;;;;;;;;;;2182195;67;1680;-18
2023/12/24 06:42:56;;;;;;;;;;;;;;;;;;2182040;59;1812;-20
2023/12/24 06:45:26;;;;;;;;;;;;;;;;;;2195567;67;1935;-19
2023/12/24 06:47:59;;;;;;;;;;;;;;;;;;2182564;67;1983;-19
2023/12/24 06:50:29;;;;;;;;;;;;;;;;;;2181031;67;1643;-20
2023/12/24 06:53:00;;;;;;;;;;;;;;;;;;2180849;67;1521;-19
2023/12/24 06:55:31;;;;;;;;;;;;;;;;;;2181559;67;1706;-18
2023/12/24 06:58:06;;;;;;;;;;;;;;;;;;2193324;67;1878;-20
2023/12/24 07:00:36;;;;;;;;;;;;;;;;;;2181792;67;1412;-20
2023/12/24 07:03:07;;;;;;;;;;;;;;;;;;2180290;60;2524;-18
2023/12/24 07:05:38;;;;;;;;;;;;;;;;;;2178114;67;2029;-20
2023/12/24 07:08:08;;;;;;;;;;;;;;;;;;2181199;59;1973;-20
2023/12/24 07:10:39;;;;;;;;;;;;;;;;;;2181812;59;1583;-20
2023/12/24 07:13:11;;;;;;;;;;;;;;;;;;2176684;59;1867;-20
2023/12/24 07:15:42;;;;;;;;;;;;;;;;;;2181691;67;1839;-20
2023/12/24 07:18:12;;;;;;;;;;;;;;;;;;2182018;67;1940;-20
2023/12/24 07:20:43;;;;;;;;;;;;;;;;;;2181253;59;1552;-20
2023/12/24 07:23:13;;;;;;;;;;;;;;;;;;2182813;60;1529;-20
2023/12/24 07:25:43;;;;;;;;;;;;;;;;;;2181972;67;1936;-20
2023/12/24 07:28:13;;;;;;;;;;;;;;;;;;2181962;67;1743;-20
2023/12/24 07:30:44;;;;;;;;;;;;;;;;;;2181210;67;1281;-20
2023/12/24 07:33:14;;;;;;;;;;;;;;;;;;2182021;59;2539;-20
2023/12/24 07:35:44;;;;;;;;;;;;;;;;;;2181160;67;1575;-20
2023/12/24 07:38:15;;;;;;;;;;;;;;;;;;2182444;59;1576;-20
2023/12/24 07:40:45;;;;;;;;;;;;;;;;;;2183011;59;2835;-20
2023/12/24 07:43:15;;;;;;;;;;;;;;;;;;2197302;67;1674;-20
2023/12/24 07:45:46;;;;;;;;;;;;;;;;;;2181579;67;1926;-20
2023/12/24 07:48:16;;;;;;;;;;;;;;;;;;2181764;59;1813;-20
2023/12/24 07:50:46;;;;;;;;;;;;;;;;;;2180782;67;1554;-20
2023/12/24 07:53:17;;;;;;;;;;;;;;;;;;2182662;67;1471;-20
2023/12/24 07:55:47;;;;;;;;;;;;;;;;;;2180999;59;1689;-20
2023/12/24 07:58:17;;;;;;;;;;;;;;;;;;2182584;67;1560;-20
2023/12/24 08:00:48;;;;;;;;;;;;;;;;;;2180749;67;1449;-20
2023/12/24 08:03:18;;;;;;;;;;;;;;;;;;2183714;63;1421;-20
2023/12/24 08:05:49;;;;;;;;;;;;;;;;;;2181135;67;1940;-20
2023/12/24 08:08:19;;;;;;;;;;;;;;;;;;2181948;67;1402;-20
2023/12/24 08:10:49;;;;;;;;;;;;;;;;;;2182164;60;1769;-20
2023/12/24 08:13:20;;;;;;;;;;;;;;;;;;2183018;59;1743;-20
2023/12/24 08:15:50;;;;;;;;;;;;;;;;;;2182297;60;1809;-20
2023/12/24 08:18:21;;;;;;;;;;;;;;;;;;2181782;67;2834;-20
2023/12/24 08:20:51;;;;;;;;;;;;;;;;;;2182499;59;1595;-20
2023/12/24 08:23:21;;;;;;;;;;;;;;;;;;2182221;67;1645;-20
2023/12/24 08:25:52;;;;;;;;;;;;;;;;;;2196966;67;1999;-20
2023/12/24 08:28:25;;;;;;;;;;;;;;;;;;2182050;67;1385;-20
2023/12/24 08:30:56;;;;;;;;;;;;;;;;;;2183206;59;2171;-20
2023/12/24 08:33:26;;;;;;;;;;;;;;;;;;2181561;59;2780;-20
2023/12/24 08:35:56;;;;;;;;;;;;;;;;;;2182909;67;1468;-20
2023/12/24 08:38:27;;;;;;;;;;;;;;;;;;2182995;67;1566;-20
2023/12/24 08:40:57;;;;;;;;;;;;;;;;;;2186118;67;1527;-20
2023/12/24 08:43:27;;;;;;;;;;;;;;;;;;2182341;67;1617;-26
2023/12/24 08:46:00;;;;;;;;;;;;;;;;;;2194488;67;1932;-20
2023/12/24 08:48:30;;;;;;;;;;;;;;;;;;2182053;67;1367;-20
2023/12/24 08:51:01;;;;;;;;;;;;;;;;;;2183056;67;1363;-20
2023/12/24 08:53:32;;;;;;;;;;;;;;;;;;2196828;67;1583;-20
2023/12/24 08:56:02;;;;;;;;;;;;;;;;;;2197565;67;1750;-20
2023/12/24 08:58:32;;;;;;;;;;;;;;;;;;2182279;59;1932;-20
2023/12/24 09:01:03;;;;;;;;;;;;;;;;;;2182657;67;1768;-20
2023/12/24 09:03:36;;;;;;;;;;;;;;;;;;2182357;67;1538;-20
2023/12/24 09:06:06;;;;;;;;;;;;;;;;;;2182791;67;1921;-20
2023/12/24 09:08:36;;;;;;;;;;;;;;;;;;2184831;59;1983;-20
2023/12/24 09:11:07;;;;;;;;;;;;;;;;;;2183212;59;1631;-20
2023/12/24 09:13:37;;;;;;;;;;;;;;;;;;2182489;59;1825;-20
2023/12/24 09:16:07;;;;;;;;;;;;;;;;;;2182586;67;2039;-20
2023/12/24 09:18:38;;;;;;;;;;;;;;;;;;2182153;67;1631;-20
2023/12/24 09:21:08;;;;;;;;;;;;;;;;;;2182961;60;1622;-20
2023/12/24 09:23:39;;;;;;;;;;;;;;;;;;2182662;67;1614;-20
2023/12/24 09:26:09;;;;;;;;;;;;;;;;;;2182909;67;1952;-20
2023/12/24 09:28:39;;;;;;;;;;;;;;;;;;2182757;67;1437;-20
2023/12/24 09:31:09;;;;;;;;;;;;;;;;;;2182307;60;2103;-20
2023/12/24 09:33:40;;;;;;;;;;;;;;;;;;2181785;59;2112;-20
2023/12/24 09:36:10;;;;;;;;;;;;;;;;;;2185409;67;2013;-20
2023/12/24 09:38:40;;;;;;;;;;;;;;;;;;2182315;67;1572;-20
2023/12/24 09:41:11;;;;;;;;;;;;;;;;;;2183479;67;1621;-20
2023/12/24 09:43:42;;;;;;;;;;;;;;;;;;2182055;67;1698;-20
2023/12/24 09:46:13;;;;;;;;;;;;;;;;;;2182778;67;1918;-20
2023/12/24 09:48:43;;;;;;;;;;;;;;;;;;2181605;67;1544;-20
2023/12/24 09:51:13;;;;;;;;;;;;;;;;;;2182802;67;1520;-20
2023/12/24 09:53:45;;;;;;;;;;;;;;;;;;2181322;67;2283;-20
2023/12/24 09:56:15;;;;;;;;;;;;;;;;;;2183253;67;1417;-20
2023/12/24 09:58:46;;;;;;;;;;;;;;;;;;2181698;67;1809;-20
2023/12/24 10:01:16;;;;;;;;;;;;;;;;;;2197566;67;1548;-20
2023/12/24 10:03:46;;;;;;;;;;;;;;;;;;2181564;60;1512;-20
2023/12/24 10:06:17;;;;;;;;;;;;;;;;;;2182078;67;2014;-20
2023/12/24 10:08:53;;;;;;;;;;;;;;;;;;2182292;59;1603;-20
2023/12/24 10:11:23;;;;;;;;;;;;;;;;;;2182771;59;1527;-20
2023/12/24 10:13:58;;;;;;;;;;;;;;;;;;2182439;59;1938;-20
2023/12/24 10:16:29;;;;;;;;;;;;;;;;;;2182758;67;1484;-20
2023/12/24 10:18:59;;;;;;;;;;;;;;;;;;2183831;59;1604;-20
2023/12/24 10:21:30;;;;;;;;;;;;;;;;;;2182983;67;1693;-20
2023/12/24 10:24:04;;;;;;;;;;;;;;;;;;2182896;67;1490;-20
2023/12/24 10:26:34;;;;;;;;;;;;;;;;;;2182769;67;1934;-20
2023/12/24 10:29:04;;;;;;;;;;;;;;;;;;2183678;67;1580;-18
2023/12/24 10:31:36;;;;;;;;;;;;;;;;;;2186599;59;2307;-18
2023/12/24 10:34:06;;;;;;;;;;;;;;;;;;2182587;59;2359;-18
2023/12/24 10:36:37;;;;;;;;;;;;;;;;;;2179027;59;3019;-18
2023/12/24 10:39:12;;;;;;;;;;;;;;;;;;2183833;59;1510;-18
2023/12/24 10:41:43;;;;;;;;;;;;;;;;;;2196434;67;2420;-19
2023/12/24 10:44:13;;;;;;;;;;;;;;;;;;2182019;59;2674;-18
2023/12/24 10:46:43;;;;;;;;;;;;;;;;;;2181578;59;2473;-18
2023/12/24 10:49:14;;;;;;;;;;;;;;;;;;2182302;64;1495;-18
2023/12/24 10:51:44;;;;;;;;;;;;;;;;;;2182433;67;1661;-18
2023/12/24 10:54:15;;;;;;;;;;;;;;;;;;2183851;59;1475;-18
2023/12/24 10:57:04;;;;;;;;;;;;;;;;;;2181651;59;2714;-19
2023/12/24 10:59:50;;;;;;;;;;;;;;;;;;2180955;59;2742;-19
2023/12/24 11:02:21;;;;;;;;;;;;;;;;;;2197749;59;1955;-18
2023/12/24 11:04:51;;;;;;;;;;;;;;;;;;2181756;59;1879;-18
2023/12/24 11:07:34;;;;;;;;;;;;;;;;;;2183498;60;3178;-18
2023/12/24 11:10:05;;;;;;;;;;;;;;;;;;2183120;60;2807;-18
2023/12/24 11:12:39;;;;;;;;;;;;;;;;;;2182316;59;1891;-19
2023/12/24 11:15:09;;;;;;;;;;;;;;;;;;2182770;59;2152;-18
2023/12/24 11:17:49;;;;;;;;;;;;;;;;;;2181892;59;2618;-18
2023/12/24 11:20:26;;;;;;;;;;;;;;;;;;2182397;67;2405;-18
2023/12/24 11:23:06;;;;;;;;;;;;;;;;;;2195539;59;2352;-18
2023/12/24 11:25:37;;;;;;;;;;;;;;;;;;2182936;67;2054;-18
2023/12/24 11:28:12;;;;;;;;;;;;;;;;;;2181981;67;2107;-18
2023/12/24 11:30:51;;;;;;;;;;;;;;;;;;2181358;67;2131;-18
2023/12/24 11:33:28;;;;;;;;;;;;;;;;;;2182493;59;2395;-18
2023/12/24 11:36:04;;;;;;;;;;;;;;;;;;2181715;67;1847;-18
2023/12/24 11:38:34;;;;;;;;;;;;;;;;;;2181880;67;1895;-18
2023/12/24 11:41:05;;;;;;;;;;;;;;;;;;2182886;59;1990;-18
2023/12/24 11:43:37;;;;;;;;;;;;;;;;;;2181649;67;2051;-18
2023/12/24 11:46:08;;;;;;;;;;;;;;;;;;2183079;67;1987;-18
2023/12/24 11:48:38;;;;;;;;;;;;;;;;;;2181870;67;2507;-18
2023/12/24 11:51:10;;;;;;;;;;;;;;;;;;2182754;59;2877;-18
2023/12/24 11:53:41;;;;;;;;;;;;;;;;;;2181588;59;2030;-18
2023/12/24 11:56:16;;;;;;;;;;;;;;;;;;2182691;67;2047;-18
2023/12/24 11:58:49;;;;;;;;;;;;;;;;;;2182979;59;1944;-18
2023/12/24 12:01:20;;;;;;;;;;;;;;;;;;2183651;67;2514;-18
2023/12/24 12:03:54;;;;;;;;;;;;;;;;;;2196818;67;2015;-18
2023/12/24 12:06:28;;;;;;;;;;;;;;;;;;2182696;59;2100;-18
2023/12/24 12:09:06;;;;;;;;;;;;;;;;;;2180446;67;3459;-18
2023/12/24 12:11:36;;;;;;;;;;;;;;;;;;2181593;59;3145;-19
2023/12/24 12:14:06;;;;;;;;;;;;;;;;;;2183373;59;2466;-18
2023/12/24 12:16:37;;;;;;;;;;;;;;;;;;2181412;67;1854;-18
2023/12/24 12:19:07;;;;;;;;;;;;;;;;;;2182615;59;1954;-18
2023/12/24 12:21:38;;;;;;;;;;;;;;;;;;2181763;67;1847;-18
2023/12/24 12:24:08;;;;;;;;;;;;;;;;;;2194486;60;2053;-18
2023/12/24 12:26:38;;;;;;;;;;;;;;;;;;2181533;67;2568;-18
2023/12/24 12:29:08;;;;;;;;;;;;;;;;;;2182649;67;2342;-18
2023/12/24 12:31:39;;;;;;;;;;;;;;;;;;2181832;59;2095;-18
2023/12/24 12:34:09;;;;;;;;;;;;;;;;;;2198595;59;2162;-18
2023/12/24 12:36:39;;;;;;;;;;;;;;;;;;2181345;67;2938;-18
2023/12/24 12:39:10;;;;;;;;;;;;;;;;;;2182961;67;1914;-18
2023/12/24 12:41:40;;;;;;;;;;;;;;;;;;2182885;67;2404;-18
2023/12/24 12:44:10;;;;;;;;;;;;;;;;;;2183876;67;1970;-18
2023/12/24 12:46:41;;;;;;;;;;;;;;;;;;2182922;67;1930;-19
2023/12/24 12:49:11;;;;;;;;;;;;;;;;;;2183100;67;2820;-29
2023/12/24 12:51:41;;;;;;;;;;;;;;;;;;2184948;67;2085;-18
2023/12/24 12:54:14;;;;;;;;;;;;;;;;;;2198217;67;2879;-18
2023/12/24 12:56:45;;;;;;;;;;;;;;;;;;2181946;59;1885;-18
2023/12/24 12:59:21;;;;;;;;;;;;;;;;;;2183661;60;1838;-18
2023/12/24 13:01:52;;;;;;;;;;;;;;;;;;2183191;67;1836;-18
2023/12/24 13:04:23;;;;;;;;;;;;;;;;;;2183525;67;1834;-18
2023/12/24 13:06:58;;;;;;;;;;;;;;;;;;2182747;60;1974;-18
2023/12/24 13:09:33;;;;;;;;;;;;;;;;;;2183036;59;3165;-18
2023/12/24 13:12:05;;;;;;;;;;;;;;;;;;2181822;59;2611;-18
2023/12/24 13:14:35;;;;;;;;;;;;;;;;;;2183765;59;1845;-18
2023/12/24 13:17:10;;;;;;;;;;;;;;;;;;2182991;59;2130;-19
2023/12/24 13:19:40;;;;;;;;;;;;;;;;;;2182729;67;2187;-18
2023/12/24 13:22:10;;;;;;;;;;;;;;;;;;2184017;67;1819;-18
2023/12/24 13:24:41;;;;;;;;;;;;;;;;;;2193376;59;3326;-19
2023/12/24 13:27:12;;;;;;;;;;;;;;;;;;2182276;59;2750;-19
2023/12/24 13:29:42;;;;;;;;;;;;;;;;;;2182311;67;2116;-20
2023/12/24 13:32:12;;;;;;;;;;;;;;;;;;2199376;59;2464;-20
2023/12/24 13:34:42;;;;;;;;;;;;;;;;;;2185545;59;1832;-20
2023/12/24 13:37:13;;;;;;;;;;;;;;;;;;2183784;67;2053;-18
2023/12/24 13:39:43;;;;;;;;;;;;;;;;;;2194332;67;2073;-18
2023/12/24 13:42:13;;;;;;;;;;;;;;;;;;2182902;59;2067;-18
2023/12/24 13:44:43;;;;;;;;;;;;;;;;;;2181674;67;2604;-20
2023/12/24 13:47:16;;;;;;;;;;;;;;;;;;2182739;67;2341;-20
2023/12/24 13:49:47;;;;;;;;;;;;;;;;;;2182258;67;1953;-19
2023/12/24 13:52:17;;;;;;;;;;;;;;;;;;2181330;67;2326;-17
2023/12/24 13:54:47;;;;;;;;;;;;;;;;;;2181630;67;2029;-20
2023/12/24 13:57:18;;;;;;;;;;;;;;;;;;2181611;59;2166;-20
2023/12/24 13:59:48;;;;;;;;;;;;;;;;;;2182276;67;2079;-20
2023/12/24 14:02:18;;;;;;;;;;;;;;;;;;2198042;67;1875;-19
2023/12/24 14:04:49;;;;;;;;;;;;;;;;;;2197768;67;1970;-19
2023/12/24 14:07:20;;;;;;;;;;;;;;;;;;2184180;59;2066;-20
2023/12/24 14:09:51;;;;;;;;;;;;;;;;;;2182514;59;2729;-20
2023/12/24 14:12:21;;;;;;;;;;;;;;;;;;2182522;59;3375;-21
2023/12/24 14:14:52;;;;;;;;;;;;;;;;;;2182507;59;2783;-22
2023/12/24 14:17:23;;;;;;;;;;;;;;;;;;2182194;59;2140;-22
2023/12/24 14:19:53;;;;;;;;;;;;;;;;;;2181867;67;2638;-20
2023/12/24 14:22:23;;;;;;;;;;;;;;;;;;2183006;67;2008;-22
2023/12/24 14:24:54;;;;;;;;;;;;;;;;;;2182277;67;1790;-22
2023/12/24 14:27:25;;;;;;;;;;;;;;;;;;2182474;60;1946;-23
2023/12/24 14:29:56;;;;;;;;;;;;;;;;;;2183041;67;1979;-23
2023/12/24 14:32:26;;;;;;;;;;;;;;;;;;2182546;59;2444;-20
2023/12/24 14:34:57;;;;;;;;;;;;;;;;;;2180900;59;3271;-19
2023/12/24 14:37:27;;;;;;;;;;;;;;;;;;2175902;59;2418;-23
2023/12/24 14:39:59;;;;;;;;;;;;;;;;;;2177671;60;3236;-22
2023/12/24 14:42:30;;;;;;;;;;;;;;;;;;2183514;59;2236;-20
2023/12/24 14:45:02;;;;;;;;;;;;;;;;;;2183361;67;1933;-22
2023/12/24 14:47:33;;;;;;;;;;;;;;;;;;2184345;67;2418;-20
2023/12/24 14:50:04;;;;;;;;;;;;;;;;;;2181730;59;2629;-19
2023/12/24 14:52:35;;;;;;;;;;;;;;;;;;2184104;59;1941;-23
2023/12/24 14:55:07;;;;;;;;;;;;;;;;;;2181664;67;2215;-23
2023/12/24 14:57:37;;;;;;;;;;;;;;;;;;2194858;59;2866;-22
2023/12/24 15:00:08;;;;;;;;;;;;;;;;;;2182774;67;1861;-23
2023/12/24 15:02:39;;;;;;;;;;;;;;;;;;2183498;67;2132;-23
2023/12/24 15:05:10;;;;;;;;;;;;;;;;;;2180119;60;2689;-20
2023/12/24 15:07:41;;;;;;;;;;;;;;;;;;2180603;59;1983;-20
2023/12/24 15:10:14;;;;;;;;;;;;;;;;;;2182110;59;1770;-20
2023/12/24 15:12:45;;;;;;;;;;;;;;;;;;2180750;60;2814;-19
2023/12/24 15:15:15;;;;;;;;;;;;;;;;;;2179710;59;2140;-20
2023/12/24 15:17:46;;;;;;;;;;;;;;;;;;2182173;67;3870;-22
2023/12/24 15:20:17;;;;;;;;;;;;;;;;;;2182899;67;1765;-20
2023/12/24 15:22:48;;;;;;;;;;;;;;;;;;2181058;67;1984;-23
2023/12/24 15:25:18;;;;;;;;;;;;;;;;;;2183412;59;2828;-23
2023/12/24 15:27:54;;;;;;;;;;;;;;;;;;2211815;66;2004;-19
2023/12/24 15:30:25;;;;;;;;;;;;;;;;;;2214388;59;2611;-19
2023/12/24 15:32:55;;;;;;;;;;;;;;;;;;2213160;58;2556;-22
2023/12/24 15:35:26;;;;;;;;;;;;;;;;;;2206489;59;2533;-22
2023/12/24 15:37:57;;;;;;;;;;;;;;;;;;2211306;66;1908;-21
2023/12/24 15:40:28;;;;;;;;;;;;;;;;;;2208488;58;1880;-19
2023/12/24 15:43:01;;;;;;;;;;;;;;;;;;2211702;58;2912;-19
2023/12/24 15:45:32;;;;;;;;;;;;;;;;;;2207662;59;1998;-23
2023/12/24 15:48:03;;;;;;;;;;;;;;;;;;2212040;58;2044;-19
2023/12/24 15:50:34;;;;;;;;;;;;;;;;;;2209201;59;1960;-22
2023/12/24 15:53:04;;;;;;;;;;;;;;;;;;2211946;66;2768;-19
2023/12/24 15:55:35;;;;;;;;;;;;;;;;;;2208690;66;1856;-24
2023/12/24 15:58:14;;;;;;;;;;;;;;;;;;2215079;58;3091;-19
2023/12/24 16:00:44;;;;;;;;;;;;;;;;;;2212168;59;2016;-19
2023/12/24 16:03:14;;;;;;;;;;;;;;;;;;2209075;58;2371;-21
2023/12/24 16:05:45;;;;;;;;;;;;;;;;;;2206962;59;1937;-24
2023/12/24 16:08:15;;;;;;;;;;;;;;;;;;2207354;59;2008;-22
2023/12/24 16:10:46;;;;;;;;;;;;;;;;;;2207235;66;3394;-20
2023/12/24 16:13:16;;;;;;;;;;;;;;;;;;2207189;59;3192;-22
2023/12/24 16:15:46;;;;;;;;;;;;;;;;;;2205055;59;2217;-24
2023/12/24 16:18:16;;;;;;;;;;;;;;;;;;2207039;59;2696;-21
2023/12/24 16:20:47;;;;;;;;;;;;;;;;;;2207992;66;1869;-19
2023/12/24 16:23:18;;;;;;;;;;;;;;;;;;2205290;59;1888;-20
2023/12/24 16:25:48;;;;;;;;;;;;;;;;;;2207249;58;2010;-22
2023/12/24 16:28:18;;;;;;;;;;;;;;;;;;2222889;58;1862;-19
2023/12/24 16:30:52;;;;;;;;;;;;;;;;;;2222683;58;1994;-21
2023/12/24 16:33:22;;;;;;;;;;;;;;;;;;2223553;58;2407;-18
2023/12/24 16:35:52;;;;;;;;;;;;;;;;;;2219493;58;2121;-19
2023/12/24 16:38:22;;;;;;;;;;;;;;;;;;2219109;66;1776;-24
2023/12/24 16:40:53;;;;;;;;;;;;;;;;;;2220009;66;2156;-22
2023/12/24 16:43:23;;;;;;;;;;;;;;;;;;2220556;66;2527;-19
2023/12/24 16:45:54;;;;;;;;;;;;;;;;;;2204104;54;3071;-23
2023/12/24 16:48:25;;;;;;;;;;;;;;;;;;2191735;59;1996;-20
2023/12/24 16:50:55;;;;;;;;;;;;;;;;;;2193087;59;1918;-23
2023/12/24 16:53:25;;;;;;;;;;;;;;;;;;2193134;66;2446;-22
2023/12/24 16:56:02;;;;;;;;;;;;;;;;;;2188982;59;2000;-22
2023/12/24 16:58:32;;;;;;;;;;;;;;;;;;2192798;59;2345;-23
2023/12/24 17:01:02;;;;;;;;;;;;;;;;;;2192793;66;2230;-20
2023/12/24 17:03:33;;;;;;;;;;;;;;;;;;2192913;66;1836;-20
2023/12/24 17:06:04;;;;;;;;;;;;;;;;;;2186378;59;3737;-23
2023/12/24 17:08:36;;;;;;;;;;;;;;;;;;2193560;59;1844;-20
2023/12/24 17:11:07;;;;;;;;;;;;;;;;;;2189160;59;2236;-23
2023/12/24 17:13:42;;;;;;;;;;;;;;;;;;2190948;59;3467;-23
2023/12/24 17:16:13;;;;;;;;;;;;;;;;;;2192860;59;3097;-20
2023/12/24 17:18:43;;;;;;;;;;;;;;;;;;2193436;59;1623;-20
2023/12/24 17:21:14;;;;;;;;;;;;;;;;;;2192671;59;2084;-20
2023/12/24 17:23:44;;;;;;;;;;;;;;;;;;2192689;59;2399;-20
2023/12/24 17:26:14;;;;;;;;;;;;;;;;;;2192693;59;1934;-23
2023/12/24 17:28:45;;;;;;;;;;;;;;;;;;2193573;59;2501;-20